Time;durP1;ratioP1;P1;durP2;ratioP2;P2;SDS_P1;SDS_P2;PMS_P1;PMS_P2;Temp;Humidity;BMP_temperature;BMP_pressure;BME280_temperature;BME280_humidity;BME280_pressure;Samples;Min_cycle;Max_cycle;Signal;HPM_P1;HPM_P2
2021/11/30 00:01:30;;;;;;;12.82;6.38;;;;;;;;;;5029401;28;22081;-84
2021/11/30 00:03:56;;;;;;;14.35;6.60;;;;;;;;;;5025224;28;20032;-82
2021/11/30 00:06:21;;;;;;;11.93;6.00;;;;;;;;;;5022777;28;21353;-83
2021/11/30 00:08:48;;;;;;;19.30;6.38;;;;;;;;;;5029680;28;20112;-84
2021/11/30 00:11:14;;;;;;;14.00;5.97;;;;;;;;;;5026302;28;20025;-83
2021/11/30 00:13:40;;;;;;;15.23;6.05;;;;;;;;;;5005024;28;20044;-84
2021/11/30 00:16:07;;;;;;;15.35;5.53;;;;;;;;;;4999326;28;20057;-83
2021/11/30 00:18:33;;;;;;;15.52;5.40;;;;;;;;;;4990239;28;20477;-84
2021/11/30 00:21:05;;;;;;;12.38;5.53;;;;;;;;;;4998655;28;20046;-81
2021/11/30 00:23:31;;;;;;;13.40;5.40;;;;;;;;;;4996956;28;20049;-83
2021/11/30 00:25:57;;;;;;;13.88;5.47;;;;;;;;;;5003375;28;20030;-81
2021/11/30 00:28:22;;;;;;;14.57;5.63;;;;;;;;;;5002967;28;20042;-84
2021/11/30 00:30:49;;;;;;;11.98;5.18;;;;;;;;;;5004342;28;20050;-82
2021/11/30 00:33:15;;;;;;;11.73;4.80;;;;;;;;;;5003027;28;20072;-83
2021/11/30 00:35:40;;;;;;;9.30;4.57;;;;;;;;;;5006619;28;20701;-84
2021/11/30 00:38:06;;;;;;;10.30;4.35;;;;;;;;;;5001640;28;20034;-81
2021/11/30 00:40:33;;;;;;;10.23;4.82;;;;;;;;;;5006260;28;20030;-81
2021/11/30 00:43:00;;;;;;;11.70;5.18;;;;;;;;;;5001513;28;20041;-83
2021/11/30 00:45:35;;;;;;;9.25;5.03;;;;;;;;;;5005872;28;20045;-83
2021/11/30 00:48:06;;;;;;;9.55;4.97;;;;;;;;;;5002980;28;20037;-83
2021/11/30 00:50:32;;;;;;;8.60;4.57;;;;;;;;;;5006393;28;20068;-84
2021/11/30 00:52:58;;;;;;;11.07;4.90;;;;;;;;;;5008544;28;20042;-83
2021/11/30 00:55:23;;;;;;;11.68;4.90;;;;;;;;;;5001508;28;20116;-83
2021/11/30 00:57:49;;;;;;;10.98;4.47;;;;;;;;;;5006264;28;20030;-81
2021/11/30 01:00:17;;;;;;;10.80;4.57;;;;;;;;;;5002583;28;20026;-84
2021/11/30 01:02:43;;;;;;;12.75;5.05;;;;;;;;;;5001950;28;20032;-82
2021/11/30 01:05:10;;;;;;;10.23;4.25;;;;;;;;;;5001556;28;20398;-84
2021/11/30 01:07:35;;;;;;;11.60;4.78;;;;;;;;;;5007181;28;20038;-82
2021/11/30 01:10:05;;;;;;;16.45;4.93;;;;;;;;;;5002167;28;20038;-81
2021/11/30 01:12:34;;;;;;;17.95;4.90;;;;;;;;;;5016373;28;20041;-82
2021/11/30 01:15:00;;;;;;;16.83;6.40;;;;;;;;;;5030932;28;20037;-81
2021/11/30 01:17:26;;;;;;;18.17;5.78;;;;;;;;;;5028728;28;20033;-82
2021/11/30 01:19:52;;;;;;;17.45;5.72;;;;;;;;;;5029085;28;20044;-81
2021/11/30 01:22:17;;;;;;;16.50;6.00;;;;;;;;;;5025695;28;20083;-82
2021/11/30 01:24:43;;;;;;;18.30;6.63;;;;;;;;;;5025423;28;20068;-83
2021/11/30 01:27:08;;;;;;;19.55;6.88;;;;;;;;;;5024164;28;20787;-81
2021/11/30 01:29:33;;;;;;;18.23;6.68;;;;;;;;;;5027755;28;20511;-84
2021/11/30 01:31:59;;;;;;;18.55;6.50;;;;;;;;;;5027057;28;20503;-83
2021/11/30 01:34:24;;;;;;;16.73;6.00;;;;;;;;;;5045070;28;20044;-84
2021/11/30 01:36:50;;;;;;;19.23;6.88;;;;;;;;;;5045759;28;20029;-81
2021/11/30 01:39:15;;;;;;;16.23;6.47;;;;;;;;;;5030653;28;20524;-84
2021/11/30 01:41:42;;;;;;;13.32;6.30;;;;;;;;;;5030641;28;20025;-84
2021/11/30 01:44:22;;;;;;;13.40;5.75;;;;;;;;;;5035237;28;20101;-84
2021/11/30 01:49:34;;;;;;;13.77;6.15;;;;;;;;;;5041422;28;20136;-83
2021/11/30 01:52:08;;;;;;;14.32;5.63;;;;;;;;;;5044929;28;20033;-83
2021/11/30 01:54:39;;;;;;;13.25;5.75;;;;;;;;;;5021662;28;20120;-81
2021/11/30 01:57:05;;;;;;;11.85;5.80;;;;;;;;;;5030059;28;20094;-84
2021/11/30 01:59:31;;;;;;;10.95;5.15;;;;;;;;;;5031020;28;20064;-83
2021/11/30 02:01:56;;;;;;;12.30;5.60;;;;;;;;;;5028659;28;20064;-83
2021/11/30 02:04:22;;;;;;;8.63;4.80;;;;;;;;;;5027510;28;20040;-83
2021/11/30 02:06:47;;;;;;;10.63;5.32;;;;;;;;;;5045583;28;20044;-80
2021/11/30 02:09:12;;;;;;;12.20;5.03;;;;;;;;;;5023870;28;20180;-83
2021/11/30 02:11:38;;;;;;;10.50;5.13;;;;;;;;;;5029355;28;20057;-83
2021/11/30 02:14:03;;;;;;;13.13;5.97;;;;;;;;;;5027189;28;20037;-83
2021/11/30 02:16:29;;;;;;;9.45;5.50;;;;;;;;;;5027721;28;20032;-83
2021/11/30 02:18:59;;;;;;;14.68;5.53;;;;;;;;;;5032344;28;20028;-83
2021/11/30 02:21:26;;;;;;;9.60;5.30;;;;;;;;;;5041948;28;20070;-81
2021/11/30 02:26:16;;;;;;;11.65;6.50;;;;;;;;;;5045397;28;20040;-83
2021/11/30 02:28:46;;;;;;;12.68;5.88;;;;;;;;;;5029250;28;20372;-81
2021/11/30 02:31:14;;;;;;;13.60;6.22;;;;;;;;;;5030839;28;20017;-84
2021/11/30 02:33:40;;;;;;;14.10;6.72;;;;;;;;;;5027605;28;20061;-83
2021/11/30 02:36:24;;;;;;;13.57;6.57;;;;;;;;;;5025180;28;20114;-83
2021/11/30 02:38:50;;;;;;;13.18;7.72;;;;;;;;;;5043553;28;20035;-82
2021/11/30 02:41:15;;;;;;;11.20;6.80;;;;;;;;;;5030790;28;20029;-82
2021/11/30 02:43:41;;;;;;;14.27;7.70;;;;;;;;;;5048313;28;20031;-83
2021/11/30 02:46:06;;;;;;;11.13;7.43;;;;;;;;;;5027974;28;20111;-83
2021/11/30 02:48:31;;;;;;;15.02;8.13;;;;;;;;;;5045249;28;20029;-83
2021/11/30 02:50:59;;;;;;;13.02;8.45;;;;;;;;;;5025411;28;20021;-82
2021/11/30 02:53:25;;;;;;;14.75;8.52;;;;;;;;;;5029292;28;20048;-84
2021/11/30 02:55:50;;;;;;;12.82;8.30;;;;;;;;;;5028629;28;20044;-83
2021/11/30 02:58:16;;;;;;;12.70;8.77;;;;;;;;;;5024821;28;20021;-83
2021/11/30 03:00:41;;;;;;;14.18;9.38;;;;;;;;;;5025934;28;20052;-83
2021/11/30 03:03:07;;;;;;;14.90;10.40;;;;;;;;;;5024686;28;20503;-84
2021/11/30 03:05:33;;;;;;;15.38;9.77;;;;;;;;;;5029617;28;20025;-83
2021/11/30 03:07:58;;;;;;;14.55;10.10;;;;;;;;;;5045671;28;20028;-82
2021/11/30 03:10:24;;;;;;;13.88;10.38;;;;;;;;;;5031737;28;20462;-83
2021/11/30 03:12:51;;;;;;;16.15;10.10;;;;;;;;;;5011740;28;20391;-83
2021/11/30 03:15:23;;;;;;;16.25;11.05;;;;;;;;;;4997521;28;20025;-83
2021/11/30 03:17:49;;;;;;;14.38;10.45;;;;;;;;;;5002587;28;20065;-83
2021/11/30 03:20:16;;;;;;;16.15;11.48;;;;;;;;;;5003637;28;20576;-81
2021/11/30 03:22:42;;;;;;;16.55;10.93;;;;;;;;;;5011411;28;20122;-82
2021/11/30 03:25:10;;;;;;;16.38;11.65;;;;;;;;;;4997370;28;20022;-83
2021/11/30 03:27:35;;;;;;;17.48;11.75;;;;;;;;;;5000756;28;20108;-85
2021/11/30 03:30:06;;;;;;;16.30;11.90;;;;;;;;;;5001952;28;20557;-84
2021/11/30 03:35:01;;;;;;;14.93;11.60;;;;;;;;;;5007263;28;20131;-82
2021/11/30 03:37:26;;;;;;;17.50;11.82;;;;;;;;;;5002530;28;20113;-83
2021/11/30 03:39:52;;;;;;;15.07;11.63;;;;;;;;;;4998808;28;20463;-84
2021/11/30 03:42:18;;;;;;;14.05;10.52;;;;;;;;;;5001742;28;20045;-81
2021/11/30 03:44:43;;;;;;;15.23;11.27;;;;;;;;;;5001558;28;20040;-84
2021/11/30 03:47:08;;;;;;;16.35;11.20;;;;;;;;;;4997813;28;20498;-83
2021/11/30 03:49:34;;;;;;;17.45;11.07;;;;;;;;;;5002334;28;20038;-83
2021/11/30 03:51:59;;;;;;;16.02;10.80;;;;;;;;;;5001083;28;20112;-81
2021/11/30 03:54:25;;;;;;;14.27;10.07;;;;;;;;;;4997860;28;20124;-84
2021/11/30 03:56:51;;;;;;;15.63;10.57;;;;;;;;;;5000563;28;20026;-84
2021/11/30 03:59:17;;;;;;;15.75;9.85;;;;;;;;;;5000986;28;20044;-83
2021/11/30 04:01:43;;;;;;;12.18;9.18;;;;;;;;;;5002044;28;20477;-83
2021/11/30 04:04:11;;;;;;;12.50;8.30;;;;;;;;;;5000684;28;20118;-84
2021/11/30 04:06:37;;;;;;;10.93;7.13;;;;;;;;;;4999249;28;20030;-81
2021/11/30 04:09:02;;;;;;;9.50;6.60;;;;;;;;;;5004727;28;20037;-83
2021/11/30 04:11:27;;;;;;;9.07;6.28;;;;;;;;;;5006864;28;20047;-84
2021/11/30 04:13:53;;;;;;;9.20;6.53;;;;;;;;;;5028080;28;20124;-83
2021/11/30 04:16:18;;;;;;;8.73;5.97;;;;;;;;;;5025621;28;20028;-84
2021/11/30 04:18:44;;;;;;;9.25;6.13;;;;;;;;;;5025239;28;20028;-83
2021/11/30 04:21:09;;;;;;;7.90;5.80;;;;;;;;;;5026154;28;20052;-82
2021/11/30 04:23:35;;;;;;;8.52;5.45;;;;;;;;;;5034169;28;20024;-83
2021/11/30 04:26:00;;;;;;;8.35;5.85;;;;;;;;;;5041354;28;20060;-81
2021/11/30 04:28:26;;;;;;;8.32;5.22;;;;;;;;;;5038521;28;20029;-81
2021/11/30 04:30:52;;;;;;;6.85;4.93;;;;;;;;;;5027735;28;20486;-81
2021/11/30 04:33:18;;;;;;;7.07;4.95;;;;;;;;;;5025032;28;20036;-81
2021/11/30 04:35:43;;;;;;;6.68;4.78;;;;;;;;;;5024199;28;20029;-84
2021/11/30 04:38:09;;;;;;;6.38;4.35;;;;;;;;;;5042502;28;20029;-83
2021/11/30 04:40:34;;;;;;;6.70;4.57;;;;;;;;;;5046097;28;20076;-82
2021/11/30 04:43:01;;;;;;;7.22;4.78;;;;;;;;;;5023871;28;20034;-82
2021/11/30 04:45:30;;;;;;;6.05;4.22;;;;;;;;;;5044770;28;20028;-81
2021/11/30 04:47:56;;;;;;;5.50;3.78;;;;;;;;;;5026428;28;20025;-81
2021/11/30 04:50:26;;;;;;;5.55;3.72;;;;;;;;;;5022891;28;20358;-84
2021/11/30 04:52:53;;;;;;;6.53;3.83;;;;;;;;;;5025695;28;20025;-84
2021/11/30 04:55:25;;;;;;;5.32;3.97;;;;;;;;;;5021275;28;20033;-83
2021/11/30 04:58:00;;;;;;;5.72;3.90;;;;;;;;;;5039474;28;20091;-81
2021/11/30 05:00:26;;;;;;;4.90;3.30;;;;;;;;;;5043861;28;20389;-84
2021/11/30 05:02:52;;;;;;;5.20;3.30;;;;;;;;;;5040109;28;20052;-81
2021/11/30 05:05:17;;;;;;;4.40;3.10;;;;;;;;;;5026848;28;20037;-84
2021/11/30 05:07:44;;;;;;;4.63;3.20;;;;;;;;;;5030103;28;20021;-83
2021/11/30 05:10:10;;;;;;;4.65;3.15;;;;;;;;;;5027034;28;20060;-83
2021/11/30 05:12:36;;;;;;;4.85;3.33;;;;;;;;;;5028403;28;20060;-83
2021/11/30 05:15:04;;;;;;;5.30;3.22;;;;;;;;;;5013379;28;20514;-83
2021/11/30 05:17:29;;;;;;;4.63;3.30;;;;;;;;;;5050028;28;20551;-83
2021/11/30 05:19:55;;;;;;;5.43;2.95;;;;;;;;;;5028368;28;20029;-83
2021/11/30 05:22:20;;;;;;;6.63;3.20;;;;;;;;;;5025873;28;20025;-83
2021/11/30 05:24:46;;;;;;;6.22;2.80;;;;;;;;;;5047557;28;20039;-84
2021/11/30 05:27:11;;;;;;;4.10;2.80;;;;;;;;;;5044106;28;20060;-83
2021/11/30 05:29:36;;;;;;;5.63;2.75;;;;;;;;;;5026828;28;20024;-81
2021/11/30 05:32:02;;;;;;;4.55;2.88;;;;;;;;;;5030915;28;20113;-83
2021/11/30 05:34:27;;;;;;;3.88;2.92;;;;;;;;;;5046397;28;20453;-83
2021/11/30 05:36:53;;;;;;;4.00;2.80;;;;;;;;;;5028235;28;20492;-83
2021/11/30 05:39:18;;;;;;;4.57;2.95;;;;;;;;;;5026517;28;20543;-83
2021/11/30 05:41:44;;;;;;;4.88;3.08;;;;;;;;;;5050237;28;20032;-82
2021/11/30 05:44:09;;;;;;;4.20;2.95;;;;;;;;;;5030601;28;20036;-81
2021/11/30 05:46:36;;;;;;;3.95;2.65;;;;;;;;;;5032329;28;20408;-83
2021/11/30 05:49:04;;;;;;;4.63;3.00;;;;;;;;;;5046724;28;20049;-82
2021/11/30 05:51:29;;;;;;;4.15;2.92;;;;;;;;;;5027576;28;20357;-84
2021/11/30 05:53:55;;;;;;;4.38;3.30;;;;;;;;;;5024591;28;20075;-84
2021/11/30 05:56:21;;;;;;;5.28;3.58;;;;;;;;;;5025734;28;20087;-84
2021/11/30 05:58:47;;;;;;;4.88;3.35;;;;;;;;;;5029359;28;20381;-83
2021/11/30 06:01:21;;;;;;;4.75;3.40;;;;;;;;;;5027453;28;20032;-82
2021/11/30 06:06:14;;;;;;;6.72;4.63;;;;;;;;;;5047953;28;20036;-83
2021/11/30 06:08:39;;;;;;;9.73;4.85;;;;;;;;;;5044607;28;20127;-83
2021/11/30 06:11:05;;;;;;;7.70;4.55;;;;;;;;;;5045794;28;20118;-83
2021/11/30 06:13:30;;;;;;;6.95;5.13;;;;;;;;;;5023009;28;20053;-84
2021/11/30 06:15:56;;;;;;;8.13;5.40;;;;;;;;;;5041231;28;20039;-83
2021/11/30 06:18:21;;;;;;;8.65;5.50;;;;;;;;;;5026002;28;20072;-82
2021/11/30 06:20:48;;;;;;;7.28;4.93;;;;;;;;;;5026281;28;20048;-83
2021/11/30 06:23:14;;;;;;;7.65;5.63;;;;;;;;;;5020421;28;20033;-83
2021/11/30 06:25:39;;;;;;;8.40;5.50;;;;;;;;;;5028208;28;20031;-83
2021/11/30 06:28:05;;;;;;;6.45;4.45;;;;;;;;;;5045648;28;20040;-83
2021/11/30 06:30:30;;;;;;;7.38;4.60;;;;;;;;;;5039862;28;20437;-83
2021/11/30 06:32:56;;;;;;;6.90;4.90;;;;;;;;;;5044357;28;20107;-83
2021/11/30 06:35:21;;;;;;;8.88;5.25;;;;;;;;;;5027789;28;20033;-85
2021/11/30 06:37:46;;;;;;;11.43;5.38;;;;;;;;;;5028003;28;20099;-81
2021/11/30 06:40:12;;;;;;;10.35;5.47;;;;;;;;;;5028829;28;20025;-82
2021/11/30 06:42:37;;;;;;;8.70;5.00;;;;;;;;;;5026426;28;20028;-80
2021/11/30 06:45:03;;;;;;;9.68;5.22;;;;;;;;;;5046816;28;20033;-81
2021/11/30 06:47:29;;;;;;;8.52;5.35;;;;;;;;;;5026724;28;20020;-83
2021/11/30 06:49:55;;;;;;;9.23;5.45;;;;;;;;;;5028278;28;20025;-83
2021/11/30 06:52:20;;;;;;;10.85;5.45;;;;;;;;;;5042304;28;20041;-81
2021/11/30 06:54:51;;;;;;;8.35;5.80;;;;;;;;;;5052226;28;20096;-82
2021/11/30 06:57:17;;;;;;;9.50;5.68;;;;;;;;;;5029248;28;20078;-83
2021/11/30 06:59:42;;;;;;;11.35;5.82;;;;;;;;;;5032507;28;20103;-84
2021/11/30 07:02:10;;;;;;;7.93;5.20;;;;;;;;;;5035420;28;20021;-81
2021/11/30 07:04:39;;;;;;;10.10;5.25;;;;;;;;;;5029397;28;20377;-83
2021/11/30 07:07:18;;;;;;;7.63;5.47;;;;;;;;;;5027963;28;20033;-82
2021/11/30 07:15:04;;;;;;;9.88;5.68;;;;;;;;;;5044413;28;20022;-81
2021/11/30 07:17:29;;;;;;;8.43;6.00;;;;;;;;;;5024317;28;20029;-81
2021/11/30 07:19:55;;;;;;;10.88;6.35;;;;;;;;;;5029552;28;20083;-81
2021/11/30 07:22:21;;;;;;;11.05;7.20;;;;;;;;;;5031201;28;20021;-81
2021/11/30 07:24:46;;;;;;;9.60;6.78;;;;;;;;;;5032860;28;20033;-83
2021/11/30 07:27:11;;;;;;;12.15;7.45;;;;;;;;;;5025775;28;20092;-84
2021/11/30 07:29:36;;;;;;;11.88;7.65;;;;;;;;;;5029800;28;20061;-81
2021/11/30 07:32:02;;;;;;;12.40;7.78;;;;;;;;;;5036595;28;20094;-85
2021/11/30 07:34:29;;;;;;;12.57;8.45;;;;;;;;;;5034068;28;20072;-83
2021/11/30 07:36:54;;;;;;;14.82;8.25;;;;;;;;;;5028583;28;20037;-83
2021/11/30 07:39:19;;;;;;;14.60;8.63;;;;;;;;;;5031946;28;20033;-81
2021/11/30 07:41:45;;;;;;;11.02;8.40;;;;;;;;;;5045458;28;20030;-83
2021/11/30 07:44:10;;;;;;;10.77;8.27;;;;;;;;;;5036255;28;20028;-83
2021/11/30 07:46:37;;;;;;;12.77;8.32;;;;;;;;;;5043273;28;20032;-82
2021/11/30 07:49:02;;;;;;;12.80;8.27;;;;;;;;;;5032482;28;20388;-84
2021/11/30 07:51:28;;;;;;;14.10;8.00;;;;;;;;;;5034034;28;20024;-81
2021/11/30 07:53:54;;;;;;;12.45;8.00;;;;;;;;;;5027782;28;20029;-82
2021/11/30 07:56:19;;;;;;;9.48;7.35;;;;;;;;;;5047509;28;20028;-81
2021/11/30 07:58:45;;;;;;;12.63;8.07;;;;;;;;;;5016796;28;20033;-84
2021/11/30 08:01:12;;;;;;;11.85;7.53;;;;;;;;;;5030095;28;20047;-82
2021/11/30 08:03:37;;;;;;;12.02;7.43;;;;;;;;;;5030007;28;20159;-85
2021/11/30 08:06:03;;;;;;;12.85;7.95;;;;;;;;;;5032812;28;20541;-83
2021/11/30 08:08:28;;;;;;;11.77;8.00;;;;;;;;;;5034508;28;20104;-85
2021/11/30 08:10:55;;;;;;;10.60;7.22;;;;;;;;;;5027245;28;20052;-81
2021/11/30 08:13:20;;;;;;;13.25;7.93;;;;;;;;;;5017660;28;20497;-84
2021/11/30 08:15:46;;;;;;;11.30;7.63;;;;;;;;;;5027606;28;20059;-84
2021/11/30 08:18:11;;;;;;;12.55;7.15;;;;;;;;;;5034375;28;20495;-82
2021/11/30 08:20:37;;;;;;;13.02;7.68;;;;;;;;;;5052243;28;20031;-82
2021/11/30 08:23:04;;;;;;;12.45;8.20;;;;;;;;;;5032562;28;20022;-85
2021/11/30 08:25:29;;;;;;;13.68;7.90;;;;;;;;;;5056873;28;20027;-82
2021/11/30 08:27:56;;;;;;;12.00;8.20;;;;;;;;;;5041232;28;20104;-85
2021/11/30 08:30:22;;;;;;;10.20;6.97;;;;;;;;;;5044313;28;20042;-83
2021/11/30 08:32:47;;;;;;;12.48;7.85;;;;;;;;;;5032176;28;20022;-84
2021/11/30 08:35:12;;;;;;;13.63;7.60;;;;;;;;;;5032391;28;20373;-81
2021/11/30 08:37:38;;;;;;;12.98;7.97;;;;;;;;;;5033343;28;20033;-83
2021/11/30 08:40:08;;;;;;;11.90;7.82;;;;;;;;;;5034537;28;20036;-83
2021/11/30 08:42:33;;;;;;;11.75;8.18;;;;;;;;;;5040160;28;20021;-81
2021/11/30 08:44:59;;;;;;;12.70;7.60;;;;;;;;;;5052798;28;20025;-85
2021/11/30 08:47:25;;;;;;;12.57;7.55;;;;;;;;;;5050092;28;20032;-83
2021/11/30 08:49:53;;;;;;;11.20;6.80;;;;;;;;;;5053407;28;20038;-84
2021/11/30 08:52:25;;;;;;;12.80;7.20;;;;;;;;;;5035158;28;20021;-82
2021/11/30 08:54:52;;;;;;;13.60;7.30;;;;;;;;;;5032068;28;20415;-85
2021/11/30 08:57:18;;;;;;;10.68;7.43;;;;;;;;;;5051490;28;20079;-85
2021/11/30 08:59:44;;;;;;;12.50;7.75;;;;;;;;;;5034457;28;20033;-83
2021/11/30 09:02:09;;;;;;;15.77;9.13;;;;;;;;;;5037545;28;20036;-85
2021/11/30 09:04:35;;;;;;;14.18;8.48;;;;;;;;;;5033469;28;20056;-83
2021/11/30 09:07:01;;;;;;;16.85;7.93;;;;;;;;;;5055611;28;20037;-85
2021/11/30 09:09:27;;;;;;;12.23;7.72;;;;;;;;;;5049537;28;20083;-81
2021/11/30 09:11:52;;;;;;;16.73;8.30;;;;;;;;;;5036280;28;20476;-83
2021/11/30 09:14:21;;;;;;;12.55;7.85;;;;;;;;;;5047583;28;20056;-85
2021/11/30 09:16:52;;;;;;;13.88;7.93;;;;;;;;;;5025438;28;20029;-83
2021/11/30 09:19:17;;;;;;;14.85;8.80;;;;;;;;;;5030414;28;20070;-80
2021/11/30 09:21:44;;;;;;;13.73;7.95;;;;;;;;;;5022830;28;20037;-85
2021/11/30 09:24:09;;;;;;;14.35;7.95;;;;;;;;;;5034807;28;20029;-85
2021/11/30 09:26:35;;;;;;;12.80;8.10;;;;;;;;;;5029111;28;20032;-85
2021/11/30 09:29:00;;;;;;;10.57;7.20;;;;;;;;;;5028965;28;20120;-80
2021/11/30 09:31:25;;;;;;;12.70;7.32;;;;;;;;;;5034090;28;20032;-83
2021/11/30 09:33:51;;;;;;;17.05;7.50;;;;;;;;;;5046184;28;20029;-81
2021/11/30 09:36:16;;;;;;;11.18;6.38;;;;;;;;;;5032808;28;20400;-85
2021/11/30 09:38:43;;;;;;;14.23;6.90;;;;;;;;;;5031632;28;20029;-83
2021/11/30 09:41:09;;;;;;;11.23;6.45;;;;;;;;;;5035448;28;20036;-80
2021/11/30 09:43:37;;;;;;;13.20;6.55;;;;;;;;;;5037297;28;20036;-82
2021/11/30 09:46:03;;;;;;;8.63;6.05;;;;;;;;;;5034335;28;20088;-85
2021/11/30 09:48:30;;;;;;;11.85;6.57;;;;;;;;;;5057658;28;20033;-85
2021/11/30 09:50:56;;;;;;;8.98;5.95;;;;;;;;;;5028387;28;20048;-83
2021/11/30 09:53:22;;;;;;;11.70;5.95;;;;;;;;;;5037867;28;20065;-81
2021/11/30 09:55:48;;;;;;;11.48;5.55;;;;;;;;;;5051702;28;20060;-81
2021/11/30 09:58:16;;;;;;;10.77;4.95;;;;;;;;;;5056991;28;20028;-82
2021/11/30 10:00:43;;;;;;;10.52;5.10;;;;;;;;;;5024643;28;20064;-83
2021/11/30 10:03:09;;;;;;;8.30;5.15;;;;;;;;;;5049560;28;20031;-83
2021/11/30 10:05:35;;;;;;;12.85;5.47;;;;;;;;;;5031613;28;20396;-82
2021/11/30 10:08:01;;;;;;;9.80;4.35;;;;;;;;;;5039013;28;20090;-84
2021/11/30 10:10:33;;;;;;;11.80;4.97;;;;;;;;;;5029652;28;20024;-83
2021/11/30 10:12:59;;;;;;;10.52;4.38;;;;;;;;;;5046434;28;20041;-84
2021/11/30 10:15:24;;;;;;;9.63;4.78;;;;;;;;;;5053377;28;20443;-81
2021/11/30 10:17:50;;;;;;;9.80;4.40;;;;;;;;;;5026228;28;20128;-87
2021/11/30 10:20:16;;;;;;;9.88;4.47;;;;;;;;;;5053225;28;20086;-82
2021/11/30 10:22:56;;;;;;;13.05;4.53;;;;;;;;;;5024570;28;20029;-81
2021/11/30 10:25:26;;;;;;;9.52;4.68;;;;;;;;;;5045722;28;20795;-82
2021/11/30 10:28:04;;;;;;;10.13;4.32;;;;;;;;;;5030945;28;20035;-83
2021/11/30 10:30:32;;;;;;;10.63;4.30;;;;;;;;;;5034406;28;20033;-82
2021/11/30 10:33:03;;;;;;;10.98;5.05;;;;;;;;;;5032315;28;20021;-82
2021/11/30 10:35:30;;;;;;;8.80;4.50;;;;;;;;;;5050915;28;20108;-83
2021/11/30 10:37:57;;;;;;;12.65;4.20;;;;;;;;;;5017620;28;20024;-83
2021/11/30 10:40:37;;;;;;;14.57;4.63;;;;;;;;;;5030675;28;20024;-85
2021/11/30 10:43:08;;;;;;;12.93;4.55;;;;;;;;;;5049346;28;20195;-84
2021/11/30 10:45:40;;;;;;;11.48;4.80;;;;;;;;;;5043810;28;20117;-82
2021/11/30 10:48:20;;;;;;;14.38;4.50;;;;;;;;;;5031157;28;20385;-82
2021/11/30 10:50:54;;;;;;;16.73;4.80;;;;;;;;;;5046333;28;20029;-83
2021/11/30 10:53:49;;;;;;;11.75;4.55;;;;;;;;;;5017522;28;20170;-83
2021/11/30 10:56:42;;;;;;;9.27;4.45;;;;;;;;;;5024338;28;20029;-82
2021/11/30 10:59:24;;;;;;;12.65;4.40;;;;;;;;;;5031442;28;20057;-86
2021/11/30 11:02:15;;;;;;;14.63;4.32;;;;;;;;;;5019221;28;20044;-83
2021/11/30 11:04:41;;;;;;;10.63;4.43;;;;;;;;;;5036213;28;20123;-85
2021/11/30 11:07:14;;;;;;;12.50;4.28;;;;;;;;;;5052068;28;20079;-82
2021/11/30 11:09:46;;;;;;;;;;;;;;;;;;5038327;28;20029;-83
2021/11/30 11:12:23;;;;;;;12.63;4.18;;;;;;;;;;5047585;28;19916;-83
2021/11/30 11:14:49;;;;;;;14.43;5.25;;;;;;;;;;5034427;28;20040;-85
2021/11/30 11:17:32;;;;;;;11.95;5.60;;;;;;;;;;5029388;28;20031;-87
2021/11/30 11:19:58;;;;;;;14.48;5.25;;;;;;;;;;5031306;28;20025;-83
2021/11/30 11:22:57;;;;;;;17.52;5.32;;;;;;;;;;5033554;28;20029;-87
2021/11/30 11:25:32;;;;;;;11.05;5.30;;;;;;;;;;5032669;28;20539;-83
2021/11/30 11:28:19;;;;;;;12.52;5.28;;;;;;;;;;5031735;28;20116;-82
2021/11/30 11:30:44;;;;;;;11.65;4.68;;;;;;;;;;5012392;28;20078;-86
2021/11/30 11:33:09;;;;;;;11.85;5.28;;;;;;;;;;5039744;28;20862;-87
2021/11/30 11:35:35;;;;;;;10.98;5.10;;;;;;;;;;5033044;28;20376;-82
2021/11/30 11:38:00;;;;;;;12.10;5.30;;;;;;;;;;5042316;28;20077;-81
2021/11/30 11:40:27;;;;;;;13.25;4.90;;;;;;;;;;5030117;28;20072;-82
2021/11/30 11:42:56;;;;;;;12.02;5.40;;;;;;;;;;5026814;28;20036;-84
2021/11/30 11:45:22;;;;;;;10.38;5.53;;;;;;;;;;5032361;28;20577;-83
2021/11/30 11:47:48;;;;;;;15.52;5.57;;;;;;;;;;5049700;28;20017;-82
2021/11/30 11:50:14;;;;;;;10.07;5.40;;;;;;;;;;5033025;28;20025;-81
2021/11/30 11:52:41;;;;;;;12.82;5.18;;;;;;;;;;5047084;28;20369;-82
2021/11/30 11:55:11;;;;;;;10.93;5.45;;;;;;;;;;5034905;28;20567;-85
2021/11/30 11:57:36;;;;;;;10.43;5.45;;;;;;;;;;5045922;28;20021;-84
2021/11/30 12:00:20;;;;;;;9.57;5.72;;;;;;;;;;5038628;28;20819;-81
2021/11/30 12:02:51;;;;;;;8.02;5.68;;;;;;;;;;5028857;28;20033;-86
2021/11/30 12:05:17;;;;;;;10.13;5.70;;;;;;;;;;5051194;28;20432;-84
2021/11/30 12:08:01;;;;;;;10.23;6.00;;;;;;;;;;5023459;28;20032;-83
2021/11/30 12:10:28;;;;;;;12.68;6.07;;;;;;;;;;5031428;28;20125;-82
2021/11/30 12:12:56;;;;;;;10.85;5.45;;;;;;;;;;5032059;28;20053;-86
2021/11/30 12:15:23;;;;;;;12.52;5.78;;;;;;;;;;5041084;28;20100;-85
2021/11/30 12:17:48;;;;;;;11.15;5.85;;;;;;;;;;5036278;28;20025;-87
2021/11/30 12:20:14;;;;;;;11.02;6.20;;;;;;;;;;5031580;28;20033;-83
2021/11/30 12:22:57;;;;;;;11.55;5.50;;;;;;;;;;5031397;28;20127;-82
2021/11/30 12:25:26;;;;;;;9.45;5.45;;;;;;;;;;5032326;28;20032;-84
2021/11/30 12:27:53;;;;;;;13.43;5.80;;;;;;;;;;5031914;28;20112;-84
2021/11/30 12:30:48;;;;;;;12.48;5.43;;;;;;;;;;5036181;28;20484;-81
2021/11/30 12:33:36;;;;;;;10.38;5.03;;;;;;;;;;5035268;28;20029;-81
2021/11/30 12:36:07;;;;;;;8.88;4.85;;;;;;;;;;5033772;28;20070;-82
2021/11/30 12:38:52;;;;;;;9.85;5.03;;;;;;;;;;5028888;28;20033;-83
2021/11/30 12:41:38;;;;;;;12.73;5.35;;;;;;;;;;5035457;28;20503;-84
2021/11/30 12:44:19;;;;;;;7.93;5.03;;;;;;;;;;5051994;28;20025;-81
2021/11/30 12:46:48;;;;;;;12.93;5.20;;;;;;;;;;5028632;28;20029;-81
2021/11/30 12:49:29;;;;;;;9.07;5.30;;;;;;;;;;5034983;28;20052;-82
2021/11/30 12:52:14;;;;;;;12.45;5.60;;;;;;;;;;5034287;28;20028;-81
2021/11/30 12:54:54;;;;;;;9.23;5.35;;;;;;;;;;5040152;28;20488;-82
2021/11/30 12:57:28;;;;;;;10.40;4.97;;;;;;;;;;5034412;28;20025;-82
2021/11/30 12:59:56;;;;;;;10.10;4.85;;;;;;;;;;5049292;28;20036;-83
2021/11/30 13:02:25;;;;;;;10.13;5.30;;;;;;;;;;5036035;28;20033;-84
2021/11/30 13:04:55;;;;;;;10.50;5.55;;;;;;;;;;5028416;28;20387;-83
2021/11/30 13:07:22;;;;;;;8.98;4.93;;;;;;;;;;5045978;28;20088;-84
2021/11/30 13:09:51;;;;;;;10.30;5.85;;;;;;;;;;5030150;28;20024;-87
2021/11/30 13:12:21;;;;;;;9.07;5.60;;;;;;;;;;5030005;28;20041;-83
2021/11/30 13:18:32;;;;;;;8.93;5.57;;;;;;;;;;5057117;28;20031;-82
2021/11/30 13:21:01;;;;;;;10.50;5.75;;;;;;;;;;5032299;28;20037;-83
2021/11/30 13:23:35;;;;;;;12.88;6.80;;;;;;;;;;5034781;28;20032;-84
2021/11/30 13:26:04;;;;;;;13.93;6.80;;;;;;;;;;5011912;28;20077;-83
2021/11/30 13:29:05;;;;;;;11.23;7.15;;;;;;;;;;4993899;28;20104;-81
2021/11/30 13:31:35;;;;;;;12.95;6.90;;;;;;;;;;5009226;28;20480;-84
2021/11/30 13:34:33;;;;;;;13.13;6.80;;;;;;;;;;4993132;28;20022;-85
2021/11/30 13:37:46;;;;;;;;;;;;;;;;;;;;;
2021/11/30 13:41:05;;;;;;;9.38;5.93;;;;;;;;;;5009456;28;20029;-84
2021/11/30 13:46:40;;;;;;;10.70;5.93;;;;;;;;;;4915081;29;20158;-85
2021/11/30 13:49:07;;;;;;;9.75;5.68;;;;;;;;;;4917459;29;20135;-83
2021/11/30 13:55:10;;;;;;;13.00;5.85;;;;;;;;;;4892978;29;20048;-83
2021/11/30 14:04:23;;;;;;;;;;;;;;;;;;;;;
2021/11/30 14:07:08;;;;;;;8.95;5.72;;;;;;;;;;4883916;29;20416;-81
2021/11/30 14:10:40;;;;;;;8.80;6.20;;;;;;;;;;5095054;23;20073;-85
2021/11/30 14:13:11;;;;;;;10.18;5.50;;;;;;;;;;4968318;28;20468;-83
2021/11/30 14:15:42;;;;;;;8.43;5.47;;;;;;;;;;4955497;28;20061;-85
2021/11/30 14:18:10;;;;;;;9.95;5.07;;;;;;;;;;4968743;28;20030;-84
2021/11/30 14:20:42;;;;;;;6.32;4.00;;;;;;;;;;4956372;28;20146;-80
2021/11/30 14:23:15;;;;;;;9.43;3.40;;;;;;;;;;4959574;28;20062;-84
2021/11/30 14:25:43;;;;;;;7.30;3.00;;;;;;;;;;4958399;28;20053;-85
2021/11/30 14:28:42;;;;;;;8.15;2.85;;;;;;;;;;5016809;28;20054;-81
2021/11/30 14:31:13;;;;;;;6.00;2.20;;;;;;;;;;4973781;28;20059;-84
2021/11/30 14:34:13;;;;;;;4.20;1.92;;;;;;;;;;4962057;28;20133;-84
2021/11/30 14:36:44;;;;;;;3.20;1.30;;;;;;;;;;4975655;28;20034;-82
2021/11/30 14:43:29;;;;;;;;;;;;;;;;;;;;;
2021/11/30 14:50:17;;;;;;;4.07;1.92;;;;;;;;;;4933010;29;20534;-84
2021/11/30 14:52:49;;;;;;;5.75;2.15;;;;;;;;;;4946394;28;20034;-81
2021/11/30 14:55:17;;;;;;;6.10;2.67;;;;;;;;;;4954180;28;20073;-81
2021/11/30 15:04:48;;;;;;;7.28;5.07;;;;;;;;;;4969954;28;20129;-90
2021/11/30 15:07:19;;;;;;;9.88;6.25;;;;;;;;;;4962946;28;20470;-83
2021/11/30 15:09:51;;;;;;;10.43;6.10;;;;;;;;;;4973792;28;20163;-81
2021/11/30 15:19:50;;;;;;;12.75;6.55;;;;;;;;;;4930931;29;20031;-83
2021/11/30 15:22:51;;;;;;;11.57;6.18;;;;;;;;;;4969021;28;20038;-89
2021/11/30 15:28:52;;;;;;;12.80;6.10;;;;;;;;;;4947962;28;20162;-82
2021/11/30 15:31:24;;;;;;;12.93;6.53;;;;;;;;;;4943555;28;20031;-82
2021/11/30 15:33:53;;;;;;;12.75;6.88;;;;;;;;;;4959694;28;20042;-82
2021/11/30 15:36:24;;;;;;;15.20;6.97;;;;;;;;;;4938694;29;20538;-82
2021/11/30 15:39:23;;;;;;;13.25;6.38;;;;;;;;;;4943857;29;20509;-88
2021/11/30 15:41:57;;;;;;;16.55;7.13;;;;;;;;;;4948211;29;20044;-87
2021/11/30 15:44:25;;;;;;;17.10;7.68;;;;;;;;;;4930379;29;20043;-82
2021/11/30 15:47:25;;;;;;;14.63;7.40;;;;;;;;;;4934875;29;20039;-88